Time;durP1;ratioP1;P1;durP2;ratioP2;P2;SDS_P1;SDS_P2;PMS_P1;PMS_P2;Temp;Humidity;BMP_temperature;BMP_pressure;BME280_temperature;BME280_humidity;BME280_pressure;Samples;Min_cycle;Max_cycle;Signal;HPM_P1;HPM_P2
2022/10/08 00:00:01;;;;;;;10.60;4.40;;;;;;;;;;4994406;28;20175;-78
2022/10/08 00:02:28;;;;;;;5.30;4.30;;;;;;;;;;4994104;28;20184;-78
2022/10/08 00:04:54;;;;;;;5.50;4.40;;;;;;;;;;5010496;28;20176;-78
2022/10/08 00:07:20;;;;;;;7.43;4.60;;;;;;;;;;5010476;28;20219;-78
2022/10/08 00:09:46;;;;;;;6.47;4.33;;;;;;;;;;4994055;28;20184;-78
2022/10/08 00:12:12;;;;;;;5.40;4.90;;;;;;;;;;5010140;28;20188;-78
2022/10/08 00:14:39;;;;;;;7.80;4.80;;;;;;;;;;4994057;28;20183;-78
2022/10/08 00:17:05;;;;;;;7.57;5.37;;;;;;;;;;4993562;28;20203;-78
2022/10/08 00:19:31;;;;;;;7.03;4.83;;;;;;;;;;4993839;28;20278;-78
2022/10/08 00:21:57;;;;;;;7.23;4.73;;;;;;;;;;4993842;28;20191;-78
2022/10/08 00:24:23;;;;;;;6.43;4.70;;;;;;;;;;4993855;28;20639;-78
2022/10/08 00:26:50;;;;;;;7.47;5.67;;;;;;;;;;4993974;28;20350;-78
2022/10/08 00:29:17;;;;;;;10.00;5.63;;;;;;;;;;5010075;28;20209;-78
2022/10/08 00:31:45;;;;;;;6.70;5.47;;;;;;;;;;5010173;28;20184;-78
2022/10/08 00:34:13;;;;;;;8.63;5.97;;;;;;;;;;4993819;28;20194;-78
2022/10/08 00:36:40;;;;;;;9.53;6.10;;;;;;;;;;4993675;28;20265;-78
2022/10/08 00:39:12;;;;;;;8.13;5.87;;;;;;;;;;5009830;28;20238;-78
2022/10/08 00:41:39;;;;;;;9.20;5.90;;;;;;;;;;5009602;28;20558;-78
2022/10/08 00:44:24;;;;;;;9.03;5.93;;;;;;;;;;5009695;28;20176;-78
2022/10/08 00:46:50;;;;;;;7.97;6.03;;;;;;;;;;5009819;28;20196;-78
2022/10/08 00:49:18;;;;;;;11.30;6.37;;;;;;;;;;5009842;28;20665;-78
2022/10/08 00:51:48;;;;;;;9.47;6.13;;;;;;;;;;5009479;28;20229;-78
2022/10/08 00:54:14;;;;;;;7.87;6.60;;;;;;;;;;4993776;28;20186;-78
2022/10/08 00:56:40;;;;;;;7.37;6.47;;;;;;;;;;4993135;28;20204;-78
2022/10/08 00:59:07;;;;;;;8.17;6.57;;;;;;;;;;5009460;28;20215;-78
2022/10/08 01:01:33;;;;;;;7.63;6.20;;;;;;;;;;5009587;28;20183;-78
2022/10/08 01:04:02;;;;;;;8.33;6.43;;;;;;;;;;4992625;28;20186;-78
2022/10/08 01:06:29;;;;;;;8.20;6.00;;;;;;;;;;5017089;23;20195;-78
2022/10/08 01:09:07;;;;;;;7.40;5.47;;;;;;;;;;4996238;28;20255;-79
2022/10/08 01:11:52;;;;;;;11.63;6.33;;;;;;;;;;4995644;28;20182;-79
2022/10/08 01:14:24;;;;;;;8.13;5.67;;;;;;;;;;4995494;28;20176;-79
2022/10/08 01:17:09;;;;;;;6.50;5.03;;;;;;;;;;4990150;28;20647;-79
2022/10/08 01:19:57;;;;;;;7.90;6.00;;;;;;;;;;4976195;28;20216;-79
2022/10/08 01:22:42;;;;;;;8.83;5.67;;;;;;;;;;4975956;28;20172;-78
2022/10/08 01:25:33;;;;;;;8.87;5.93;;;;;;;;;;4976228;28;20180;-79
2022/10/08 01:28:19;;;;;;;9.67;5.73;;;;;;;;;;4977422;28;20540;-78
2022/10/08 01:30:50;;;;;;;8.13;6.03;;;;;;;;;;4955698;28;20188;-78
2022/10/08 01:33:37;;;;;;;12.60;6.37;;;;;;;;;;4976124;28;20188;-79
2022/10/08 01:36:04;;;;;;;11.50;6.27;;;;;;;;;;4975924;28;20220;-79
2022/10/08 01:38:32;;;;;;;10.13;6.00;;;;;;;;;;4976878;28;20243;-79
2022/10/08 01:40:59;;;;;;;10.83;6.33;;;;;;;;;;4975562;28;20176;-79
2022/10/08 01:43:27;;;;;;;7.07;5.90;;;;;;;;;;4959787;28;20631;-79
2022/10/08 01:45:56;;;;;;;8.07;6.47;;;;;;;;;;4959804;28;20211;-79
2022/10/08 01:48:26;;;;;;;8.00;6.00;;;;;;;;;;4959717;28;20212;-79
2022/10/08 01:50:57;;;;;;;8.90;5.87;;;;;;;;;;4975690;28;20193;-79
2022/10/08 01:53:26;;;;;;;9.77;6.40;;;;;;;;;;4959847;28;20180;-79
2022/10/08 01:55:53;;;;;;;8.23;5.87;;;;;;;;;;4959724;28;20251;-79
2022/10/08 01:58:26;;;;;;;8.97;6.03;;;;;;;;;;4959593;28;20212;-79
2022/10/08 02:00:53;;;;;;;9.40;6.97;;;;;;;;;;4975538;28;20176;-79
2022/10/08 02:03:19;;;;;;;12.13;7.47;;;;;;;;;;4959704;28;20181;-79
2022/10/08 02:05:49;;;;;;;11.67;7.03;;;;;;;;;;4959909;28;20192;-79
2022/10/08 02:08:15;;;;;;;7.83;6.07;;;;;;;;;;4975551;28;20239;-79
2022/10/08 02:10:41;;;;;;;10.07;6.40;;;;;;;;;;4958982;28;20275;-78
2022/10/08 02:13:08;;;;;;;7.27;5.83;;;;;;;;;;4959368;28;20231;-79
2022/10/08 02:15:48;;;;;;;9.90;6.30;;;;;;;;;;4958558;28;20180;-79
2022/10/08 02:18:17;;;;;;;9.50;5.97;;;;;;;;;;4975394;28;20243;-79
2022/10/08 02:20:52;;;;;;;9.67;6.07;;;;;;;;;;4975913;28;20188;-79
2022/10/08 02:23:23;;;;;;;10.10;6.30;;;;;;;;;;4975369;28;20182;-79
2022/10/08 02:25:52;;;;;;;7.57;5.93;;;;;;;;;;4974966;28;20172;-79
2022/10/08 02:28:36;;;;;;;8.70;6.17;;;;;;;;;;4975437;28;20698;-79
2022/10/08 02:31:08;;;;;;;7.60;6.50;;;;;;;;;;4975778;28;20176;-79
2022/10/08 02:34:06;;;;;;;9.27;6.07;;;;;;;;;;4975021;28;20603;-79
2022/10/08 02:36:35;;;;;;;7.57;6.03;;;;;;;;;;4954050;28;20208;-79
2022/10/08 02:39:05;;;;;;;7.37;5.73;;;;;;;;;;4975654;28;20212;-79
2022/10/08 02:41:34;;;;;;;10.40;6.47;;;;;;;;;;4959360;28;20188;-79
2022/10/08 02:44:05;;;;;;;7.97;6.37;;;;;;;;;;4975385;28;20199;-79
2022/10/08 02:46:34;;;;;;;8.93;6.47;;;;;;;;;;4975484;28;20200;-79
2022/10/08 02:49:05;;;;;;;11.60;7.23;;;;;;;;;;4975177;28;20184;-79
2022/10/08 02:51:34;;;;;;;8.47;7.20;;;;;;;;;;4975224;28;20235;-79
2022/10/08 02:54:03;;;;;;;9.67;6.80;;;;;;;;;;4959390;28;20212;-79
2022/10/08 02:57:01;;;;;;;9.13;6.73;;;;;;;;;;4975069;28;20185;-79
2022/10/08 02:59:27;;;;;;;11.10;6.97;;;;;;;;;;4953788;28;20801;-79
2022/10/08 03:01:57;;;;;;;7.83;6.93;;;;;;;;;;4958884;28;20215;-79
2022/10/08 03:04:42;;;;;;;10.53;7.07;;;;;;;;;;4974931;28;20271;-79
2022/10/08 03:07:11;;;;;;;9.77;7.47;;;;;;;;;;4975217;28;20270;-79
2022/10/08 03:09:39;;;;;;;10.10;7.10;;;;;;;;;;4974516;28;20272;-79
2022/10/08 03:12:05;;;;;;;9.37;7.20;;;;;;;;;;4958324;28;20181;-79
2022/10/08 03:14:33;;;;;;;9.63;7.30;;;;;;;;;;4975104;28;20183;-79
2022/10/08 03:17:00;;;;;;;10.10;7.07;;;;;;;;;;4974550;28;20220;-79
2022/10/08 03:19:26;;;;;;;8.90;6.80;;;;;;;;;;4958378;28;20212;-79
2022/10/08 03:21:53;;;;;;;12.70;7.53;;;;;;;;;;4974584;28;20187;-79
2022/10/08 03:24:19;;;;;;;14.50;7.30;;;;;;;;;;4974559;28;20263;-79
2022/10/08 03:26:45;;;;;;;10.33;6.53;;;;;;;;;;4960990;28;20228;-79
2022/10/08 03:29:11;;;;;;;10.53;7.13;;;;;;;;;;4977865;28;20212;-78
2022/10/08 03:31:37;;;;;;;9.97;6.43;;;;;;;;;;4978325;28;20185;-79
2022/10/08 03:34:04;;;;;;;9.57;6.40;;;;;;;;;;4978568;28;20246;-79
2022/10/08 03:36:30;;;;;;;9.13;6.60;;;;;;;;;;4977637;28;20557;-79
2022/10/08 03:38:57;;;;;;;10.37;6.97;;;;;;;;;;4962056;28;20216;-79
2022/10/08 03:41:24;;;;;;;8.13;6.80;;;;;;;;;;4977446;28;20183;-79
2022/10/08 03:43:50;;;;;;;10.60;6.97;;;;;;;;;;4977907;28;20192;-79
2022/10/08 03:46:16;;;;;;;13.10;6.70;;;;;;;;;;4962148;28;20180;-79
2022/10/08 03:48:42;;;;;;;10.70;6.80;;;;;;;;;;4961810;28;20682;-79
2022/10/08 03:51:11;;;;;;;11.67;6.90;;;;;;;;;;4961475;28;20596;-79
2022/10/08 03:53:38;;;;;;;10.83;6.17;;;;;;;;;;4977766;28;20180;-79
2022/10/08 03:56:05;;;;;;;12.97;6.77;;;;;;;;;;4977975;28;20176;-79
2022/10/08 03:58:31;;;;;;;10.00;6.87;;;;;;;;;;4977698;28;20598;-79
2022/10/08 04:00:57;;;;;;;8.47;6.20;;;;;;;;;;4961561;28;20177;-79
2022/10/08 04:03:23;;;;;;;9.77;6.30;;;;;;;;;;4977706;28;20180;-79
2022/10/08 04:05:49;;;;;;;10.40;6.83;;;;;;;;;;4977708;28;20238;-79
2022/10/08 04:08:15;;;;;;;9.80;6.67;;;;;;;;;;4976972;28;20246;-79
2022/10/08 04:10:41;;;;;;;10.83;8.50;;;;;;;;;;4977338;28;20195;-79
2022/10/08 04:13:08;;;;;;;8.93;7.10;;;;;;;;;;4960947;28;20194;-79
2022/10/08 04:15:34;;;;;;;10.57;7.80;;;;;;;;;;4977302;28;20216;-79
2022/10/08 04:17:59;;;;;;;11.27;7.30;;;;;;;;;;4961845;28;20220;-79
2022/10/08 04:20:25;;;;;;;9.33;7.20;;;;;;;;;;4977956;28;20179;-79
2022/10/08 04:22:51;;;;;;;8.87;6.87;;;;;;;;;;4977776;28;20180;-79
2022/10/08 04:25:18;;;;;;;12.33;6.90;;;;;;;;;;4962083;28;20252;-79
2022/10/08 04:27:47;;;;;;;9.60;6.80;;;;;;;;;;4977555;28;20192;-79
2022/10/08 04:30:14;;;;;;;8.83;6.83;;;;;;;;;;4962440;28;20208;-79
2022/10/08 04:32:40;;;;;;;12.13;6.73;;;;;;;;;;4977193;28;20179;-79
2022/10/08 04:35:06;;;;;;;12.30;6.60;;;;;;;;;;4977698;28;20177;-79
2022/10/08 04:37:32;;;;;;;10.10;6.00;;;;;;;;;;4959876;28;20253;-78
2022/10/08 04:39:58;;;;;;;9.40;6.10;;;;;;;;;;4977708;28;20181;-78
2022/10/08 04:42:24;;;;;;;8.47;6.20;;;;;;;;;;4960671;28;20189;-78
2022/10/08 04:44:50;;;;;;;8.50;5.80;;;;;;;;;;4960992;28;20176;-78
2022/10/08 04:47:16;;;;;;;8.23;6.07;;;;;;;;;;4976590;28;20690;-79
2022/10/08 04:49:42;;;;;;;10.77;5.80;;;;;;;;;;4976554;28;20184;-78
2022/10/08 04:52:08;;;;;;;8.60;4.77;;;;;;;;;;4960567;28;20196;-79
2022/10/08 04:54:35;;;;;;;7.70;5.07;;;;;;;;;;4976726;28;20541;-78
2022/10/08 04:57:01;;;;;;;7.50;4.57;;;;;;;;;;4976212;28;20196;-78
2022/10/08 04:59:27;;;;;;;8.27;5.20;;;;;;;;;;4976379;28;20262;-78
2022/10/08 05:01:56;;;;;;;7.17;4.43;;;;;;;;;;4975900;28;20541;-78
2022/10/08 05:04:22;;;;;;;7.50;4.50;;;;;;;;;;4960494;28;20231;-79
2022/10/08 05:06:49;;;;;;;9.40;4.70;;;;;;;;;;4976253;28;20208;-78
2022/10/08 05:09:15;;;;;;;7.47;4.70;;;;;;;;;;4973859;28;20185;-78
2022/10/08 05:11:41;;;;;;;6.70;4.20;;;;;;;;;;4956470;28;20191;-78
2022/10/08 05:14:08;;;;;;;5.73;3.47;;;;;;;;;;4956725;28;20187;-77
2022/10/08 05:16:34;;;;;;;7.60;3.97;;;;;;;;;;4972155;28;20207;-78
2022/10/08 05:19:00;;;;;;;7.07;4.10;;;;;;;;;;4956245;28;20586;-77
2022/10/08 05:21:27;;;;;;;8.00;4.10;;;;;;;;;;4956239;28;20543;-77
2022/10/08 05:23:58;;;;;;;4.40;3.30;;;;;;;;;;4972335;28;20186;-78
2022/10/08 05:26:26;;;;;;;8.03;3.77;;;;;;;;;;4972231;28;20189;-78
2022/10/08 05:28:55;;;;;;;4.87;3.83;;;;;;;;;;4972275;28;20185;-78
2022/10/08 05:31:22;;;;;;;7.70;3.57;;;;;;;;;;4956251;28;20279;-78
2022/10/08 05:33:48;;;;;;;7.47;3.80;;;;;;;;;;4972290;28;20184;-78
2022/10/08 05:36:16;;;;;;;4.70;3.53;;;;;;;;;;4956146;28;20603;-78
2022/10/08 05:38:42;;;;;;;5.13;3.40;;;;;;;;;;4972249;28;20215;-78
2022/10/08 05:41:08;;;;;;;6.93;3.70;;;;;;;;;;4971957;28;20177;-78
2022/10/08 05:43:34;;;;;;;6.10;3.30;;;;;;;;;;4972187;28;20187;-77
2022/10/08 05:46:00;;;;;;;6.73;3.27;;;;;;;;;;4972411;28;20261;-77
2022/10/08 05:48:26;;;;;;;5.93;3.03;;;;;;;;;;4972025;28;20249;-77
2022/10/08 05:50:52;;;;;;;5.20;3.23;;;;;;;;;;4956092;28;20240;-77
2022/10/08 05:53:18;;;;;;;7.83;3.57;;;;;;;;;;4955949;28;20187;-77
2022/10/08 05:55:44;;;;;;;5.13;3.57;;;;;;;;;;4956203;28;20227;-77
2022/10/08 05:58:10;;;;;;;7.13;3.47;;;;;;;;;;4971868;28;20214;-77
2022/10/08 06:00:36;;;;;;;6.20;2.97;;;;;;;;;;4955803;28;20183;-77
2022/10/08 06:03:02;;;;;;;5.37;3.23;;;;;;;;;;4955531;28;20189;-77
2022/10/08 06:05:28;;;;;;;4.07;2.70;;;;;;;;;;4955912;28;20184;-77
2022/10/08 06:08:55;;;;;;;6.17;3.50;;;;;;;;;;5069550;28;20540;-77
2022/10/08 06:11:21;;;;;;;5.37;3.27;;;;;;;;;;5068300;28;20671;-77
2022/10/08 06:13:47;;;;;;;6.43;3.20;;;;;;;;;;5085043;28;20233;-77
2022/10/08 06:16:13;;;;;;;5.80;3.10;;;;;;;;;;5068375;28;20656;-77
2022/10/08 06:18:40;;;;;;;5.40;3.10;;;;;;;;;;5051942;28;20291;-77
2022/10/08 06:21:08;;;;;;;6.00;3.33;;;;;;;;;;5070830;28;20229;-78
2022/10/08 06:23:34;;;;;;;7.03;3.53;;;;;;;;;;5053037;28;20187;-78
2022/10/08 06:26:01;;;;;;;5.90;3.30;;;;;;;;;;5069459;28;20267;-78
2022/10/08 06:28:27;;;;;;;5.63;3.10;;;;;;;;;;5069376;28;20687;-78
2022/10/08 06:30:53;;;;;;;4.90;2.83;;;;;;;;;;5069705;28;20598;-78
2022/10/08 06:33:19;;;;;;;5.67;3.27;;;;;;;;;;5068672;28;20647;-78
2022/10/08 06:35:45;;;;;;;4.87;3.03;;;;;;;;;;5051509;28;20173;-78
2022/10/08 06:38:11;;;;;;;6.30;3.57;;;;;;;;;;5067942;28;20201;-78
2022/10/08 06:40:39;;;;;;;6.33;3.10;;;;;;;;;;5051529;28;20184;-78
2022/10/08 06:43:15;;;;;;;6.87;3.27;;;;;;;;;;5051823;28;20181;-78
2022/10/08 06:45:41;;;;;;;5.40;2.80;;;;;;;;;;5068435;28;20321;-78
2022/10/08 06:48:08;;;;;;;5.33;2.90;;;;;;;;;;5068821;28;20207;-78
2022/10/08 06:50:34;;;;;;;7.37;3.03;;;;;;;;;;5069092;28;20184;-78
2022/10/08 06:53:00;;;;;;;5.53;2.90;;;;;;;;;;5068333;28;20563;-78
2022/10/08 06:55:26;;;;;;;6.10;2.93;;;;;;;;;;5068545;28;20241;-78
2022/10/08 06:57:52;;;;;;;3.57;2.87;;;;;;;;;;5068592;28;20228;-78
2022/10/08 07:00:19;;;;;;;4.30;2.70;;;;;;;;;;5051631;28;20177;-78
2022/10/08 07:02:45;;;;;;;4.00;2.90;;;;;;;;;;5068214;28;20173;-78
2022/10/08 07:05:11;;;;;;;5.77;3.17;;;;;;;;;;5052201;28;20204;-78
2022/10/08 07:07:37;;;;;;;4.33;2.50;;;;;;;;;;5051620;28;20220;-77
2022/10/08 07:10:03;;;;;;;4.40;2.43;;;;;;;;;;5050916;28;20181;-77
2022/10/08 07:12:31;;;;;;;4.67;2.20;;;;;;;;;;5050987;28;20181;-77
2022/10/08 07:14:57;;;;;;;4.30;2.37;;;;;;;;;;5067404;28;20178;-77
2022/10/08 07:17:25;;;;;;;4.87;2.47;;;;;;;;;;5066918;28;20205;-76
2022/10/08 07:19:51;;;;;;;5.43;2.43;;;;;;;;;;5056011;28;20703;-77
2022/10/08 07:22:17;;;;;;;4.87;2.50;;;;;;;;;;5054863;28;20206;-78
2022/10/08 07:24:43;;;;;;;4.43;2.63;;;;;;;;;;5054164;28;20226;-76
2022/10/08 07:27:09;;;;;;;3.80;2.20;;;;;;;;;;5053538;28;20204;-77
2022/10/08 07:29:35;;;;;;;4.47;2.37;;;;;;;;;;5053958;28;20201;-77
2022/10/08 07:32:01;;;;;;;10.07;3.40;;;;;;;;;;5038377;28;20174;-78
2022/10/08 07:34:28;;;;;;;4.53;2.87;;;;;;;;;;5038979;28;20220;-78
2022/10/08 07:36:54;;;;;;;4.53;2.97;;;;;;;;;;5039125;28;20200;-77
2022/10/08 07:39:20;;;;;;;4.97;2.77;;;;;;;;;;5056101;28;20252;-78
2022/10/08 07:41:46;;;;;;;8.03;3.00;;;;;;;;;;5055640;28;20181;-77
2022/10/08 07:44:13;;;;;;;7.37;3.03;;;;;;;;;;5039291;28;20666;-77
2022/10/08 07:46:50;;;;;;;5.33;2.90;;;;;;;;;;5056066;28;20202;-78
2022/10/08 07:49:17;;;;;;;6.43;3.20;;;;;;;;;;5039633;28;20177;-78
2022/10/08 07:51:43;;;;;;;4.93;2.93;;;;;;;;;;5055791;28;20223;-78
2022/10/08 07:54:12;;;;;;;6.30;3.00;;;;;;;;;;5056172;28;20178;-78
2022/10/08 07:56:38;;;;;;;5.93;3.13;;;;;;;;;;5055644;28;20194;-78
2022/10/08 07:59:05;;;;;;;4.57;2.77;;;;;;;;;;5038564;28;20181;-78
2022/10/08 08:01:32;;;;;;;6.50;3.13;;;;;;;;;;5055723;28;20268;-78
2022/10/08 08:04:00;;;;;;;6.53;3.00;;;;;;;;;;5056795;28;20534;-78
2022/10/08 08:06:27;;;;;;;6.90;3.37;;;;;;;;;;5055017;28;20170;-77
2022/10/08 08:08:53;;;;;;;6.33;3.07;;;;;;;;;;5055241;28;20653;-77
2022/10/08 08:11:20;;;;;;;8.80;3.10;;;;;;;;;;5055277;28;20186;-77
2022/10/08 08:13:47;;;;;;;5.63;2.83;;;;;;;;;;5038960;28;20235;-77
2022/10/08 08:16:14;;;;;;;6.70;3.13;;;;;;;;;;5054724;28;20264;-77
2022/10/08 08:18:42;;;;;;;7.80;3.10;;;;;;;;;;5055653;28;20178;-77
2022/10/08 08:21:10;;;;;;;5.47;2.70;;;;;;;;;;5055315;28;20201;-77
2022/10/08 08:23:37;;;;;;;5.90;2.67;;;;;;;;;;5056731;28;20176;-78
2022/10/08 08:26:04;;;;;;;4.23;2.63;;;;;;;;;;5056187;28;20169;-78
2022/10/08 08:28:30;;;;;;;7.53;3.00;;;;;;;;;;5055554;28;20193;-78
2022/10/08 08:31:14;;;;;;;5.83;2.87;;;;;;;;;;5055095;28;20174;-78
2022/10/08 08:33:40;;;;;;;7.10;2.70;;;;;;;;;;5055843;28;20219;-78
2022/10/08 08:36:06;;;;;;;6.60;3.07;;;;;;;;;;5038669;28;20185;-78
2022/10/08 08:38:39;;;;;;;6.27;2.90;;;;;;;;;;5039610;28;20209;-78
2022/10/08 08:41:14;;;;;;;4.80;2.90;;;;;;;;;;5039465;28;20237;-77
2022/10/08 08:43:40;;;;;;;10.27;2.87;;;;;;;;;;5056138;28;20181;-78
2022/10/08 08:46:06;;;;;;;6.27;2.53;;;;;;;;;;5057350;28;20189;-78
2022/10/08 08:48:35;;;;;;;5.93;2.97;;;;;;;;;;5055436;28;20651;-77
2022/10/08 08:51:03;;;;;;;6.07;2.77;;;;;;;;;;5038859;28;20178;-78
2022/10/08 08:53:29;;;;;;;4.77;2.73;;;;;;;;;;5054997;28;20180;-77
2022/10/08 08:55:56;;;;;;;8.37;3.27;;;;;;;;;;5054420;28;20188;-78
2022/10/08 08:58:26;;;;;;;4.47;2.87;;;;;;;;;;5055855;28;20194;-77
2022/10/08 09:00:57;;;;;;;6.87;2.93;;;;;;;;;;5054080;28;20189;-78
2022/10/08 09:03:34;;;;;;;9.40;3.13;;;;;;;;;;5054222;28;20180;-77
2022/10/08 09:06:04;;;;;;;5.60;2.73;;;;;;;;;;5054431;28;20184;-78
2022/10/08 09:08:35;;;;;;;5.63;2.97;;;;;;;;;;5054423;28;20209;-78
2022/10/08 09:11:03;;;;;;;5.37;2.83;;;;;;;;;;5054353;28;20196;-78
2022/10/08 09:13:45;;;;;;;4.57;2.83;;;;;;;;;;5054233;28;20174;-78
2022/10/08 09:16:12;;;;;;;6.10;2.80;;;;;;;;;;5055089;28;20678;-78
2022/10/08 09:18:39;;;;;;;9.53;3.30;;;;;;;;;;5054066;28;20177;-78
2022/10/08 09:21:05;;;;;;;5.10;2.70;;;;;;;;;;5053731;28;20670;-77
2022/10/08 09:23:31;;;;;;;5.00;3.03;;;;;;;;;;5037144;28;20178;-78
2022/10/08 09:25:58;;;;;;;6.73;2.80;;;;;;;;;;5053996;28;20178;-78
2022/10/08 09:28:57;;;;;;;6.63;3.27;;;;;;;;;;5053379;28;20213;-78
2022/10/08 09:31:36;;;;;;;7.00;2.80;;;;;;;;;;5041898;28;20188;-78
2022/10/08 09:34:14;;;;;;;4.73;2.67;;;;;;;;;;5053271;28;20169;-78
2022/10/08 09:36:43;;;;;;;8.73;2.90;;;;;;;;;;5053223;28;20197;-78
2022/10/08 09:39:29;;;;;;;5.70;3.07;;;;;;;;;;5055230;28;20208;-78
2022/10/08 09:42:08;;;;;;;7.30;2.97;;;;;;;;;;5036900;28;20603;-78
2022/10/08 09:44:59;;;;;;;5.87;2.60;;;;;;;;;;5053514;28;20177;-78
2022/10/08 09:47:26;;;;;;;5.57;2.47;;;;;;;;;;5053551;28;20212;-78
2022/10/08 09:50:03;;;;;;;7.33;2.80;;;;;;;;;;5037301;28;20264;-78
2022/10/08 09:52:29;;;;;;;7.23;2.80;;;;;;;;;;5053615;28;20181;-78
2022/10/08 09:55:00;;;;;;;6.57;2.50;;;;;;;;;;5037621;28;20683;-78
2022/10/08 09:57:26;;;;;;;3.87;2.50;;;;;;;;;;5054192;28;20205;-78
2022/10/08 09:59:53;;;;;;;7.40;2.50;;;;;;;;;;5053564;28;20182;-78
2022/10/08 10:02:22;;;;;;;5.87;3.07;;;;;;;;;;5053607;28;20182;-78
2022/10/08 10:04:52;;;;;;;4.97;2.80;;;;;;;;;;5053472;28;20177;-78
2022/10/08 10:07:18;;;;;;;5.80;2.63;;;;;;;;;;5053222;28;20236;-78
2022/10/08 10:09:47;;;;;;;5.00;2.60;;;;;;;;;;5053837;28;20564;-78
2022/10/08 10:12:16;;;;;;;5.83;2.63;;;;;;;;;;5036869;28;20181;-77
2022/10/08 10:14:44;;;;;;;4.87;2.27;;;;;;;;;;5053533;28;20184;-77
2022/10/08 10:17:18;;;;;;;4.70;2.27;;;;;;;;;;5036841;28;20205;-78
2022/10/08 10:19:50;;;;;;;3.20;1.80;;;;;;;;;;5054591;28;20177;-77
2022/10/08 10:22:19;;;;;;;2.67;1.40;;;;;;;;;;5051691;28;20273;-78
2022/10/08 10:25:04;;;;;;;2.00;1.40;;;;;;;;;;5052372;28;20177;-78
2022/10/08 10:27:59;;;;;;;6.43;1.90;;;;;;;;;;5050777;28;20209;-77
2022/10/08 10:30:27;;;;;;;4.30;2.00;;;;;;;;;;5052604;28;20260;-78
2022/10/08 10:32:53;;;;;;;2.40;1.40;;;;;;;;;;5051873;28;20221;-78
2022/10/08 10:35:27;;;;;;;3.60;1.30;;;;;;;;;;5052063;28;20260;-77
2022/10/08 10:37:57;;;;;;;1.90;1.30;;;;;;;;;;5051437;28;20197;-77
2022/10/08 10:40:44;;;;;;;2.67;1.30;;;;;;;;;;5051703;28;20182;-77
2022/10/08 10:43:10;;;;;;;2.03;1.40;;;;;;;;;;5051198;28;20227;-77
2022/10/08 10:45:38;;;;;;;2.30;1.43;;;;;;;;;;5051410;28;20268;-77
2022/10/08 10:48:06;;;;;;;2.30;1.40;;;;;;;;;;5051127;28;20552;-77
2022/10/08 10:50:36;;;;;;;2.17;1.53;;;;;;;;;;5035275;28;20185;-76
2022/10/08 10:53:21;;;;;;;2.20;1.50;;;;;;;;;;5050904;28;20174;-77
2022/10/08 10:56:04;;;;;;;2.90;1.50;;;;;;;;;;5054732;28;20184;-77
2022/10/08 10:58:53;;;;;;;4.47;2.00;;;;;;;;;;5054438;28;20208;-76
2022/10/08 11:01:19;;;;;;;3.03;1.80;;;;;;;;;;5051287;28;20667;-77
2022/10/08 11:03:48;;;;;;;3.70;1.70;;;;;;;;;;5054117;28;20178;-73
2022/10/08 11:06:33;;;;;;;2.00;1.70;;;;;;;;;;5037298;28;20561;-75
2022/10/08 11:09:02;;;;;;;5.17;3.33;;;;;;;;;;5055119;28;20238;-74
2022/10/08 11:11:34;;;;;;;2.83;1.93;;;;;;;;;;5053880;28;20193;-74
2022/10/08 11:14:00;;;;;;;2.97;1.77;;;;;;;;;;5054277;28;20231;-74
2022/10/08 11:16:26;;;;;;;3.47;1.90;;;;;;;;;;5053725;28;20552;-74
2022/10/08 11:18:56;;;;;;;3.23;1.90;;;;;;;;;;5053855;28;20174;-74
2022/10/08 11:21:41;;;;;;;6.43;2.83;;;;;;;;;;5037259;28;20269;-74
2022/10/08 11:24:25;;;;;;;5.83;3.20;;;;;;;;;;5053984;28;20543;-74
2022/10/08 11:27:07;;;;;;;6.57;3.67;;;;;;;;;;5053620;28;20220;-77
2022/10/08 11:29:36;;;;;;;4.23;2.70;;;;;;;;;;5053472;28;20706;-77
2022/10/08 11:32:03;;;;;;;2.77;2.27;;;;;;;;;;5053157;28;20265;-77
2022/10/08 11:34:34;;;;;;;5.47;2.50;;;;;;;;;;5037070;28;20180;-77
2022/10/08 11:37:21;;;;;;;3.33;2.37;;;;;;;;;;5036811;28;20750;-77
2022/10/08 11:39:52;;;;;;;3.57;2.20;;;;;;;;;;5053534;28;20202;-77
2022/10/08 11:42:18;;;;;;;3.90;2.23;;;;;;;;;;5053150;28;20266;-77
2022/10/08 11:44:44;;;;;;;6.43;2.40;;;;;;;;;;5054406;28;20193;-77
2022/10/08 11:47:29;;;;;;;5.53;2.30;;;;;;;;;;5036793;28;20694;-77
2022/10/08 11:49:55;;;;;;;3.83;2.23;;;;;;;;;;5053205;28;20188;-77
2022/10/08 11:52:21;;;;;;;3.73;2.60;;;;;;;;;;5052906;28;20173;-77
2022/10/08 11:54:48;;;;;;;3.13;2.07;;;;;;;;;;5053156;28;20231;-77
2022/10/08 11:57:21;;;;;;;3.17;2.30;;;;;;;;;;5054254;28;20271;-77
2022/10/08 11:59:54;;;;;;;3.53;2.60;;;;;;;;;;5053159;28;20182;-77
2022/10/08 12:02:26;;;;;;;4.37;2.63;;;;;;;;;;5054059;28;20565;-77
2022/10/08 12:04:53;;;;;;;3.43;2.30;;;;;;;;;;5052830;28;20173;-77
2022/10/08 12:07:31;;;;;;;4.43;2.40;;;;;;;;;;5052635;28;20220;-77
2022/10/08 12:10:06;;;;;;;3.90;2.70;;;;;;;;;;5052961;28;20170;-77
2022/10/08 12:12:51;;;;;;;5.70;2.70;;;;;;;;;;5052515;28;20239;-77
2022/10/08 12:15:23;;;;;;;3.70;2.47;;;;;;;;;;5052592;28;20698;-77
2022/10/08 12:17:53;;;;;;;3.87;2.97;;;;;;;;;;5053956;28;20247;-77
2022/10/08 12:20:21;;;;;;;7.10;2.97;;;;;;;;;;5074565;22;20229;-76
2022/10/08 12:23:03;;;;;;;5.47;2.90;;;;;;;;;;5052516;28;20176;-76
2022/10/08 12:25:49;;;;;;;4.13;2.60;;;;;;;;;;5052612;28;20264;-76
2022/10/08 12:28:18;;;;;;;3.37;2.63;;;;;;;;;;5048643;28;20212;-77
2022/10/08 12:30:47;;;;;;;6.30;2.80;;;;;;;;;;5053505;28;20238;-76
2022/10/08 12:33:13;;;;;;;5.10;2.83;;;;;;;;;;5052145;28;20181;-76
2022/10/08 12:35:58;;;;;;;6.17;3.10;;;;;;;;;;5052631;28;20173;-76
2022/10/08 12:38:43;;;;;;;4.33;3.00;;;;;;;;;;5052278;28;20185;-76
2022/10/08 12:41:16;;;;;;;4.70;3.00;;;;;;;;;;5052304;28;20197;-76
2022/10/08 12:43:45;;;;;;;4.77;2.77;;;;;;;;;;5052133;28;20182;-76
2022/10/08 12:46:18;;;;;;;5.13;3.00;;;;;;;;;;5052202;28;20227;-76
2022/10/08 12:48:48;;;;;;;6.00;2.70;;;;;;;;;;5052000;28;20634;-76
2022/10/08 12:51:21;;;;;;;5.83;3.13;;;;;;;;;;5051702;28;20664;-76
2022/10/08 12:53:47;;;;;;;7.60;3.10;;;;;;;;;;5053336;28;20177;-77
2022/10/08 12:56:15;;;;;;;5.23;2.93;;;;;;;;;;5035376;28;20548;-76
2022/10/08 12:58:43;;;;;;;4.73;2.70;;;;;;;;;;5035229;28;20190;-76
2022/10/08 13:01:11;;;;;;;4.07;2.73;;;;;;;;;;5035049;28;20675;-76
2022/10/08 13:03:37;;;;;;;6.17;2.97;;;;;;;;;;5051657;28;20181;-76
2022/10/08 13:06:17;;;;;;;7.40;2.93;;;;;;;;;;5052059;28;20224;-77
2022/10/08 13:08:43;;;;;;;4.80;3.00;;;;;;;;;;5051689;28;20292;-76
2022/10/08 13:11:11;;;;;;;4.80;2.83;;;;;;;;;;5035002;28;20194;-76
2022/10/08 13:13:41;;;;;;;4.53;2.60;;;;;;;;;;5035025;28;20181;-76
2022/10/08 13:16:09;;;;;;;3.63;2.50;;;;;;;;;;5051180;28;20652;-76
2022/10/08 13:18:37;;;;;;;4.90;2.73;;;;;;;;;;5051742;28;20209;-76
2022/10/08 13:21:07;;;;;;;3.90;2.30;;;;;;;;;;5051417;28;20224;-76
2022/10/08 13:23:33;;;;;;;3.63;2.40;;;;;;;;;;5051271;28;20177;-76
2022/10/08 13:25:59;;;;;;;4.03;2.90;;;;;;;;;;5052695;28;20166;-76
2022/10/08 13:28:25;;;;;;;4.50;2.50;;;;;;;;;;5034727;28;20201;-77
2022/10/08 13:30:54;;;;;;;4.53;3.10;;;;;;;;;;5051195;28;20206;-76
2022/10/08 13:33:21;;;;;;;4.90;2.77;;;;;;;;;;5051036;28;20554;-76
2022/10/08 13:35:51;;;;;;;4.13;2.40;;;;;;;;;;5051435;28;20235;-76
2022/10/08 13:38:23;;;;;;;3.97;2.63;;;;;;;;;;5051353;28;20182;-78
2022/10/08 13:41:04;;;;;;;5.50;2.30;;;;;;;;;;5034576;28;20279;-77
2022/10/08 13:43:30;;;;;;;4.17;2.50;;;;;;;;;;5051063;28;20664;-77
2022/10/08 13:45:56;;;;;;;3.23;2.30;;;;;;;;;;5051240;28;20262;-77
2022/10/08 13:48:22;;;;;;;4.37;2.40;;;;;;;;;;5034566;28;20278;-77
2022/10/08 13:50:49;;;;;;;3.30;2.20;;;;;;;;;;5051001;28;20201;-77
2022/10/08 13:53:16;;;;;;;3.03;2.13;;;;;;;;;;5050964;28;20177;-77
2022/10/08 13:55:44;;;;;;;3.57;2.13;;;;;;;;;;5050785;28;20169;-77
2022/10/08 13:58:11;;;;;;;5.10;2.50;;;;;;;;;;5050968;28;20174;-77
2022/10/08 14:00:38;;;;;;;3.67;2.40;;;;;;;;;;5050987;28;20255;-77
2022/10/08 14:03:05;;;;;;;2.83;2.10;;;;;;;;;;5050899;28;20173;-77
2022/10/08 14:05:32;;;;;;;3.60;2.67;;;;;;;;;;5050942;28;20273;-77
2022/10/08 14:08:00;;;;;;;4.00;2.07;;;;;;;;;;5034243;28;20201;-77
2022/10/08 14:10:26;;;;;;;4.60;1.90;;;;;;;;;;5034133;28;20691;-77
2022/10/08 14:12:52;;;;;;;4.93;2.23;;;;;;;;;;5034231;28;20184;-77
2022/10/08 14:15:19;;;;;;;6.40;2.27;;;;;;;;;;5050839;28;20173;-77
2022/10/08 14:17:45;;;;;;;3.00;2.00;;;;;;;;;;5050681;28;20208;-77
2022/10/08 14:20:11;;;;;;;2.47;2.00;;;;;;;;;;5050739;28;20225;-77
2022/10/08 14:22:38;;;;;;;3.07;2.10;;;;;;;;;;5050458;28;20235;-77
2022/10/08 14:25:12;;;;;;;4.40;2.37;;;;;;;;;;5050683;28;20227;-77
2022/10/08 14:27:38;;;;;;;2.40;1.90;;;;;;;;;;5050566;28;20246;-77
2022/10/08 14:30:04;;;;;;;3.43;2.10;;;;;;;;;;5036897;28;20228;-77
2022/10/08 14:32:30;;;;;;;5.33;2.40;;;;;;;;;;5054423;28;20177;-77
2022/10/08 14:34:56;;;;;;;5.23;2.43;;;;;;;;;;5038041;28;20220;-77
2022/10/08 14:37:22;;;;;;;4.60;2.43;;;;;;;;;;5055815;28;20173;-77
2022/10/08 14:39:48;;;;;;;4.10;2.20;;;;;;;;;;5054300;28;20208;-77
2022/10/08 14:42:14;;;;;;;2.43;1.80;;;;;;;;;;5037741;28;20178;-77
2022/10/08 14:44:41;;;;;;;3.73;2.33;;;;;;;;;;5054352;28;20653;-77
2022/10/08 14:47:07;;;;;;;3.27;2.20;;;;;;;;;;5054428;28;20659;-77
2022/10/08 14:49:33;;;;;;;3.77;2.03;;;;;;;;;;5055496;28;20225;-77
2022/10/08 14:51:59;;;;;;;2.20;2.00;;;;;;;;;;5037423;28;20205;-77
2022/10/08 14:54:26;;;;;;;4.47;1.93;;;;;;;;;;5037996;28;20603;-77